Nearby METAR Reports

 

KSJC - San Jose, California, USA
Distance from station: NE 9mi, 14km
Updated: 09,30/2020 4:53am
Mostly cloudy
Mostly cloudy
 Wind from N
Wind: N 5 mph , 7 km/h
Temperature: 63°F , 17°C
Dew Point: 59°F , 15°C
Humidity: 88%
Barometer: 30.07 inHg , 1018.3 hPa
Clouds: Mostly cloudy
Visibility: 7 miles , 11 km
Cloud details: Mostly cloudy 800 ft
2020/09/30 08:53 KSJC 300853Z AUTO 35004KT 7SM BKN008 17/15 A3007 RMK AO2 SLP182 T01720150 51008
KNUQ - Moffett Nas/Mtn, California, USA
Distance from station: N 9mi, 14km
Updated: 09,30/2020 5:15am
Overcast
Overcast
 Wind from W
Wind: W 6 mph , 9 km/h
Temperature: 63°F , 17°C
Dew Point: 59°F , 15°C
Humidity: 88%
Barometer: 30.07 inHg , 1018.3 hPa
Clouds: Overcast
Visibility: 10 miles , 16 km
Cloud details: Overcast 700 ft
2020/09/30 09:15 KNUQ 300915Z AUTO 27005KT 10SM OVC007 17/15 A3007 RMK AO2
KPAO - Palo Alto, California, USA
Distance from station: NNW 14mi, 23km
Updated: 09,29/2020 9:47pm
NOT Current

 
Visibility: 2 miles , 3 km
2020/09/30 01:47 KPAO 300147Z 3209KT 10SM SKC 18/16 A3001 RMK LAST
 
KRHV - San Jose/Reid, California, USA
Distance from station: ENE 12mi, 19km
Updated: 09,30/2020 12:47am
NOT Current
Clear
Clear
 Wind from NW
Wind: NW 6 mph , 9 km/h
Temperature: 66°F , 19°C
Dew Point: 61°F , 16°C
Humidity: 83%
Barometer: 30.04 inHg , 1017.3 hPa
Clouds: Clear
Visibility: 10 miles , 16 km
2020/09/30 04:47 KRHV 300447Z 31005KT 10SM SKC 19/16 A3004 RMK LAST
KOAK - Oakland, California, USA
Distance from station: NNW 31mi, 50km
Updated: 09,30/2020 4:53am
Overcast
Overcast
 Wind from NNE
Wind: NNE 6 mph , 9 km/h
Temperature: 63°F , 17°C
Dew Point: 57°F , 14°C
Humidity: 83%
Barometer: 30.08 inHg , 1018.6 hPa
Clouds: Overcast
Visibility: 7 miles , 11 km
Cloud details: Overcast 500 ft
2020/09/30 08:53 KOAK 300853Z 03005KT 7SM OVC005 17/14 A3008 RMK AO2 SLP185 T01670144 51009
KSQL - San Carlos Airpo, California, USA
Distance from station: NW 21mi, 34km
Updated: 09,30/2020 5:15am
Mostly cloudy
Mostly cloudy
 Wind from NW
Wind: NW 3 mph , 6 km/h
Temperature: 59°F , 15°C
Dew Point: 57°F , 14°C
Humidity: 94%
Barometer: 30.09 inHg , 1019 hPa
Clouds: Mostly cloudy
Visibility: 10 miles , 16 km
Cloud details: Mostly cloudy 1000 ft
2020/09/30 09:15 KSQL 300915Z AUTO 31003KT 10SM BKN010 15/14 A3009 RMK AO2
 
KSFO - San Francisco, California, USA
Distance from station: NW 30mi, 49km
Updated: 09,30/2020 4:56am
Mist, Overcast
Mist, Overcast
 Wind from WNW
Wind: WNW 13 mph , 20 km/h
Temperature: 61°F , 16°C
Dew Point: 55°F , 13°C
Humidity: 83%
Barometer: 30.07 inHg , 1018.3 hPa
Summary: Mist
Clouds: Overcast
Visibility: 6 miles , 10 km
Cloud details: Few Clouds 100 ft
Overcast 300 ft
2020/09/30 08:56 KSFO 300856Z 30011KT 6SM BR FEW001 OVC003 16/13 A3007 RMK AO2 SLP183 T01560133 51008
KE16 - San Martin, California, USA
Distance from station: ESE 27mi, 43km
Updated: 09,30/2020 5:10am

 Wind from NNW
Wind: NNW 6 mph , 9 km/h
Temperature: 59°F , 15°C
Dew Point: 55°F , 13°C
Humidity: 88%
Barometer: 30.08 inHg , 1018.6 hPa
Visibility: 10 miles , 16 km
2020/09/30 09:10 KE16 300910Z AUTO 33005KT 10SM 15/13 A3008 RMK AO2
KWVI - Watsonville, California, USA
Distance from station: SSE 27mi, 44km
Updated: 09,30/2020 4:53am
Fog, Overcast
Fog, Overcast
 Wind from calm
Wind: Calm
Temperature: 57°F , 14°C
Dew Point: 57°F , 14°C
Humidity: 100%
Barometer: 30.06 inHg , 1017.9 hPa
Summary: Fog
Clouds: Overcast
Visibility: 1/4 mile , 0.4 km
Cloud details: Overcast 200 ft
2020/09/30 08:53 KWVI 300853Z AUTO 00000KT 1/4SM FG VV002 14/14 A3006 RMK AO2 SLP179 T01440144 50003
 
KHAF - Half Moon Bay, California, USA
Distance from station: WNW 31mi, 50km
Updated: 09,30/2020 5:15am
Mist, Overcast
Mist, Overcast
 Wind from NNW
Wind: NNW 6 mph , 9 km/h
Temperature: 57°F , 14°C
Dew Point: 57°F , 14°C
Humidity: 100%
Barometer: 30.08 inHg , 1018.6 hPa
Summary: Mist
Clouds: Overcast
Visibility: 3 miles , 5 km
Cloud details: Overcast 300 ft
2020/09/30 09:15 KHAF 300915Z AUTO 33005KT 3SM BR OVC003 14/14 A3008 RMK AO2
KHWD - Hayward, California, USA
Distance from station: N 28mi, 44km
Updated: 09,30/2020 4:54am
Haze, Overcast
Haze, Overcast
 Wind from WNW
Wind: WNW 3 mph , 6 km/h
Temperature: 63°F , 17°C
Dew Point: 57°F , 14°C
Humidity: 83%
Barometer: 30.07 inHg , 1018.3 hPa
Summary: Haze
Clouds: Overcast
Visibility: 4 miles , 6 km
Cloud details: Overcast 500 ft
2020/09/30 08:54 KHWD 300854Z 29003KT 4SM HZ OVC005 17/14 A3007 RMK AO2 SLP192 T01670139 51008
KLVK - Livermore, California, USA
Distance from station: NNE 31mi, 51km
Updated: 09,30/2020 4:53am
Smoke, Clear
Smoke, Clear
 Wind from W
Wind: W 3 mph , 6 km/h
Temperature: 63°F , 17°C
Dew Point: 55°F , 13°C
Humidity: 77%
Barometer: 30.06 inHg , 1017.9 hPa
Summary: Smoke
Clouds: Clear
Visibility: 10 miles , 16 km
2020/09/30 08:53 KLVK 300853Z AUTO 26003KT 10SM FU CLR 17/13 A3006 RMK AO2 SLP173 T01720133 51008